Terminal Aerodrome Forecast
Issued by NWS Houston/Galveston, TX

Home | Current Version | Previous Version | Text Only | Print | Product List | Glossary On
Versions: 1 2 3 4 5 6 7 8 9 10 11 12 13 14 15 16 17
000
FTUS44 KHGX 170522
TAFCLL
TAF
KCLL 170522Z 1706/1806 13008KT P6SM SCT025 BKN035 BKN250
     FM171000 12007KT P6SM BKN025 BKN035 BKN250
     FM171500 11011KT P6SM BKN035 BKN060 BKN250
     FM180200 08006KT P6SM BKN050=

USA.gov is the U.S. government's official web portal to all federal, state and local government web resources and services.